createdAt,value
2023-01-26T00:00:00.723Z,63.30
2023-01-26T00:02:28.995Z,65.33
2023-01-26T00:04:57.109Z,63.83
2023-01-26T00:07:26.663Z,66.60
2023-01-26T00:09:55.170Z,71.03
2023-01-26T00:12:23.377Z,68.47
2023-01-26T00:14:51.533Z,72.23
2023-01-26T00:17:26.975Z,71.10
2023-01-26T00:19:56.700Z,75.43
2023-01-26T00:22:28.160Z,71.93
2023-01-26T00:24:56.581Z,75.20
2023-01-26T00:27:24.793Z,73.03
2023-01-26T00:29:53.362Z,69.53
2023-01-26T00:32:21.576Z,72.43
2023-01-26T00:34:49.872Z,70.23
2023-01-26T00:37:18.041Z,68.57
2023-01-26T00:39:47.657Z,66.33
2023-01-26T00:42:16.058Z,67.07
2023-01-26T00:44:44.778Z,70.07
2023-01-26T00:47:15.342Z,66.90
2023-01-26T00:49:43.601Z,70.60
2023-01-26T00:52:12.390Z,69.03
2023-01-26T00:54:40.806Z,67.83
2023-01-26T00:57:10.749Z,73.70
2023-01-26T00:59:38.980Z,64.17
2023-01-26T01:02:07.245Z,66.70
2023-01-26T01:04:35.541Z,72.40
2023-01-26T01:07:03.794Z,70.83
2023-01-26T01:09:33.837Z,73.27
2023-01-26T01:12:02.055Z,70.60
2023-01-26T01:14:31.759Z,70.67
2023-01-26T01:17:00.005Z,65.43
2023-01-26T01:19:28.744Z,70.87
2023-01-26T01:21:56.943Z,66.03
2023-01-26T01:24:25.439Z,69.53
2023-01-26T01:26:53.611Z,68.50
2023-01-26T01:29:22.495Z,76.47
2023-01-26T01:31:52.488Z,70.50
2023-01-26T01:34:20.728Z,70.80
2023-01-26T01:36:48.899Z,72.80
2023-01-26T01:39:20.146Z,68.87
2023-01-26T01:41:48.437Z,71.13
2023-01-26T01:44:19.718Z,66.43
2023-01-26T01:46:56.363Z,70.10
2023-01-26T01:49:29.213Z,67.77
2023-01-26T01:52:02.451Z,67.47
2023-01-26T01:54:35.848Z,69.77
2023-01-26T01:57:15.363Z,79.33
2023-01-26T01:59:47.405Z,69.43
2023-01-26T02:02:17.365Z,74.20
2023-01-26T02:04:46.138Z,70.97
2023-01-26T02:07:15.563Z,71.97
2023-01-26T02:10:03.349Z,77.23
2023-01-26T02:12:34.002Z,66.43
2023-01-26T02:15:03.927Z,71.63
2023-01-26T02:17:33.602Z,69.43
2023-01-26T02:20:06.298Z,68.17
2023-01-26T02:22:43.684Z,73.17
2023-01-26T02:25:21.526Z,70.00
2023-01-26T02:27:52.008Z,69.57
2023-01-26T02:30:23.989Z,68.57
2023-01-26T02:32:52.537Z,74.03
2023-01-26T02:35:21.277Z,71.33
2023-01-26T02:37:49.596Z,77.45
2023-01-26T02:40:25.365Z,70.50
2023-01-26T02:42:55.234Z,63.78
2023-01-26T02:45:24.857Z,65.90
2023-01-26T02:47:53.565Z,69.00
2023-01-26T02:50:20.840Z,69.20
2023-01-26T02:52:49.030Z,71.65
2023-01-26T02:55:22.422Z,62.35
2023-01-26T02:57:51.581Z,64.60
2023-01-26T03:00:23.448Z,72.00
2023-01-26T03:02:54.929Z,62.13
2023-01-26T03:05:25.081Z,64.65
2023-01-26T03:07:54.131Z,62.83
2023-01-26T03:10:27.196Z,63.00
2023-01-26T03:12:55.506Z,66.07
2023-01-26T03:15:43.864Z,64.07
2023-01-26T03:18:29.772Z,69.20
2023-01-26T03:21:17.001Z,67.40
2023-01-26T03:24:02.597Z,65.97
2023-01-26T03:26:48.588Z,62.30
2023-01-26T03:29:17.546Z,62.17
2023-01-26T03:31:48.121Z,62.37
2023-01-26T03:34:16.757Z,65.87
2023-01-26T03:36:46.977Z,60.50
2023-01-26T03:39:30.747Z,67.90
2023-01-26T03:42:16.858Z,68.73
2023-01-26T03:45:02.403Z,67.73
2023-01-26T03:47:50.471Z,62.63
2023-01-26T03:50:36.148Z,63.00
2023-01-26T03:53:21.749Z,62.72
2023-01-26T03:56:07.725Z,65.17
2023-01-26T03:58:35.939Z,66.13
2023-01-26T04:01:04.357Z,63.57
2023-01-26T04:03:51.580Z,64.57
2023-01-26T04:06:37.267Z,58.57
2023-01-26T04:09:05.857Z,67.38
2023-01-26T04:11:34.062Z,68.47
2023-01-26T04:14:19.628Z,59.07
2023-01-26T04:17:05.120Z,64.83
2023-01-26T04:19:52.506Z,65.53
2023-01-26T04:22:20.790Z,62.83
2023-01-26T04:24:49.696Z,60.07
2023-01-26T04:27:17.923Z,59.93
2023-01-26T04:29:46.074Z,61.37
2023-01-26T04:32:15.960Z,56.13
2023-01-26T04:34:45.699Z,56.73
2023-01-26T04:37:21.468Z,62.33
2023-01-26T04:39:49.810Z,61.40
2023-01-26T04:42:18.950Z,62.10
2023-01-26T04:44:47.200Z,66.80
2023-01-26T04:47:15.928Z,59.17
2023-01-26T04:49:45.888Z,62.20
2023-01-26T04:52:16.371Z,60.17
2023-01-26T04:54:45.975Z,68.97
2023-01-26T04:57:14.088Z,68.40
2023-01-26T04:59:46.574Z,64.23
2023-01-26T05:02:14.797Z,64.20
2023-01-26T05:04:42.917Z,67.13
2023-01-26T05:07:12.668Z,66.87
2023-01-26T05:09:41.121Z,77.17
2023-01-26T05:12:34.777Z,69.73
2023-01-26T05:15:25.684Z,66.97
2023-01-26T05:18:08.497Z,67.43
2023-01-26T05:21:05.513Z,75.47
2023-01-26T05:23:43.684Z,71.60
2023-01-26T05:26:32.167Z,71.70
2023-01-26T05:29:05.029Z,73.40
2023-01-26T05:31:33.334Z,74.40
2023-01-26T05:34:01.666Z,72.07
2023-01-26T05:36:30.159Z,72.90
2023-01-26T05:39:00.161Z,78.87
2023-01-26T05:41:29.161Z,69.07
2023-01-26T05:44:15.743Z,66.70
2023-01-26T05:46:48.539Z,68.13
2023-01-26T05:49:16.979Z,66.27
2023-01-26T05:51:45.219Z,71.23
2023-01-26T05:54:16.237Z,69.30
2023-01-26T05:56:44.527Z,66.23
2023-01-26T05:59:12.949Z,68.17
2023-01-26T06:01:41.237Z,72.67
2023-01-26T06:04:11.356Z,69.03
2023-01-26T06:06:46.403Z,66.20
2023-01-26T06:09:29.085Z,62.53
2023-01-26T06:12:07.479Z,76.73
2023-01-26T06:15:09.617Z,62.43
2023-01-26T06:17:44.954Z,66.77
2023-01-26T06:20:15.794Z,74.53
2023-01-26T06:22:51.932Z,67.65
2023-01-26T06:25:21.763Z,67.30
2023-01-26T06:27:49.950Z,67.00
2023-01-26T06:30:26.706Z,73.33
2023-01-26T06:33:00.297Z,69.50
2023-01-26T06:35:29.735Z,66.13
2023-01-26T06:38:01.780Z,67.27
2023-01-26T06:40:31.813Z,65.43
2023-01-26T06:43:00.050Z,66.90
2023-01-26T06:45:28.293Z,66.70
2023-01-26T06:47:56.951Z,67.40
2023-01-26T06:50:27.779Z,63.08
2023-01-26T06:53:00.006Z,73.82
2023-01-26T06:55:43.982Z,61.08
2023-01-26T06:58:31.199Z,58.03
2023-01-26T07:01:21.438Z,60.87
2023-01-26T07:03:49.826Z,61.22
2023-01-26T07:06:18.364Z,56.20
2023-01-26T07:08:46.867Z,56.38
2023-01-26T07:11:17.463Z,59.75
2023-01-26T07:13:45.665Z,56.85
2023-01-26T07:16:15.673Z,54.20
2023-01-26T07:18:44.036Z,63.20
2023-01-26T07:21:15.194Z,53.25
2023-01-26T07:23:43.567Z,51.40
2023-01-26T07:26:11.782Z,53.13
2023-01-26T07:28:41.771Z,47.05
2023-01-26T07:31:11.852Z,51.00
2023-01-26T07:33:40.219Z,45.53
2023-01-26T07:36:08.559Z,46.50
2023-01-26T07:38:36.772Z,44.65
2023-01-26T07:41:10.555Z,54.33
2023-01-26T07:43:39.225Z,48.40
2023-01-26T07:46:12.352Z,42.65
2023-01-26T07:48:41.800Z,40.40
2023-01-26T07:51:11.204Z,35.00
2023-01-26T07:53:40.315Z,38.87
2023-01-26T07:56:10.745Z,41.22
2023-01-26T07:58:39.298Z,38.15
2023-01-26T08:01:09.886Z,35.73
2023-01-26T08:03:39.800Z,38.60
2023-01-26T08:06:12.108Z,38.30
2023-01-26T08:08:42.740Z,41.63
2023-01-26T08:11:11.842Z,33.28
2023-01-26T08:13:40.318Z,34.80
2023-01-26T08:16:12.140Z,32.33
2023-01-26T08:18:42.921Z,35.97
2023-01-26T08:21:12.072Z,35.13
2023-01-26T08:23:40.341Z,31.60
2023-01-26T08:26:11.496Z,34.17
2023-01-26T08:28:39.885Z,28.23
2023-01-26T08:31:11.573Z,31.33
2023-01-26T08:33:42.276Z,28.13
2023-01-26T08:36:13.601Z,28.10
2023-01-26T08:38:42.609Z,28.37
2023-01-26T08:41:11.714Z,27.87
2023-01-26T08:43:40.131Z,29.10
2023-01-26T08:46:08.586Z,28.70
2023-01-26T08:48:37.504Z,24.77
2023-01-26T08:51:08.822Z,26.03
2023-01-26T08:53:38.279Z,24.37
2023-01-26T08:56:08.918Z,25.97
2023-01-26T08:58:37.364Z,27.20
2023-01-26T09:01:06.474Z,27.80
2023-01-26T09:03:35.594Z,23.73
2023-01-26T09:06:05.425Z,24.67
2023-01-26T09:08:35.128Z,25.00
2023-01-26T09:11:03.969Z,25.27
2023-01-26T09:13:32.237Z,27.37
2023-01-26T09:16:00.462Z,22.83
2023-01-26T09:18:28.635Z,31.92
2023-01-26T09:20:56.914Z,26.02
2023-01-26T09:23:25.184Z,25.73
2023-01-26T09:25:55.649Z,23.83
2023-01-26T09:28:23.950Z,30.57
2023-01-26T09:30:52.226Z,26.10
2023-01-26T09:33:22.901Z,23.93
2023-01-26T09:35:51.203Z,25.48
2023-01-26T09:38:19.855Z,25.67
2023-01-26T09:40:57.331Z,25.98
2023-01-26T09:43:35.220Z,19.93
2023-01-26T09:46:18.272Z,21.90
2023-01-26T09:48:57.084Z,22.67
2023-01-26T09:51:32.576Z,21.53
2023-01-26T09:54:05.521Z,22.13
2023-01-26T09:56:35.241Z,23.35
2023-01-26T09:59:14.453Z,23.10
2023-01-26T10:01:48.424Z,23.02
2023-01-26T10:04:30.076Z,19.35
2023-01-26T10:06:59.601Z,24.00
2023-01-26T10:09:48.732Z,20.53
2023-01-26T10:12:23.018Z,22.63
2023-01-26T10:14:57.625Z,22.63
2023-01-26T10:17:32.033Z,24.65
2023-01-26T10:20:06.435Z,21.88
2023-01-26T10:22:43.842Z,21.02
2023-01-26T10:25:16.702Z,23.10
2023-01-26T10:27:46.272Z,21.10
2023-01-26T10:30:17.669Z,20.15
2023-01-26T10:32:48.989Z,21.02
2023-01-26T10:35:20.205Z,20.40
2023-01-26T10:37:49.400Z,19.92
2023-01-26T10:40:18.547Z,20.00
2023-01-26T10:42:57.317Z,21.20
2023-01-26T10:45:30.013Z,22.58
2023-01-26T10:48:17.483Z,19.33
2023-01-26T10:50:46.410Z,22.80
2023-01-26T10:53:20.153Z,19.92
2023-01-26T10:56:01.990Z,19.88
2023-01-26T10:58:48.819Z,21.80
2023-01-26T11:01:23.220Z,20.48
2023-01-26T11:04:06.073Z,21.92
2023-01-26T11:06:35.495Z,23.33
2023-01-26T11:09:19.403Z,19.83
2023-01-26T11:12:02.360Z,19.77
2023-01-26T11:14:32.504Z,20.00
2023-01-26T11:17:15.082Z,20.80
2023-01-26T11:19:57.494Z,20.30
2023-01-26T11:22:31.431Z,23.15
2023-01-26T11:25:08.104Z,22.95
2023-01-26T11:28:00.391Z,23.17
2023-01-26T11:30:56.968Z,20.98
2023-01-26T11:33:33.249Z,20.38
2023-01-26T11:36:10.760Z,22.60
2023-01-26T11:38:41.594Z,20.50
2023-01-26T11:41:23.843Z,19.75
2023-01-26T11:44:26.524Z,22.17
2023-01-26T11:47:25.301Z,21.83
2023-01-26T11:50:10.309Z,21.98
2023-01-26T11:52:50.017Z,21.95
2023-01-26T11:55:30.252Z,26.73
2023-01-26T11:58:12.064Z,23.88
2023-01-26T12:00:44.050Z,20.75
2023-01-26T12:03:22.503Z,24.65
2023-01-26T12:05:55.403Z,24.90
2023-01-26T12:08:27.373Z,25.83
2023-01-26T12:11:22.346Z,24.08
2023-01-26T12:14:09.068Z,25.42
2023-01-26T12:16:45.771Z,26.80
2023-01-26T12:19:33.825Z,29.30
2023-01-26T12:22:09.925Z,27.20
2023-01-26T12:27:37.551Z,26.80
2023-01-26T12:30:23.224Z,28.42
2023-01-26T12:32:51.582Z,26.27
2023-01-26T12:35:37.553Z,33.00
2023-01-26T12:38:17.916Z,33.55
2023-01-26T12:41:00.507Z,30.50
2023-01-26T12:43:58.988Z,27.67
2023-01-26T12:46:32.605Z,35.42
2023-01-26T12:49:08.522Z,31.95
2023-01-26T12:51:40.385Z,39.17
2023-01-26T12:54:17.931Z,38.83
2023-01-26T12:56:50.479Z,40.08
2023-01-26T12:59:46.631Z,37.47
2023-01-26T13:02:25.148Z,34.57
2023-01-26T13:04:53.654Z,31.77
2023-01-26T13:07:30.970Z,31.25
2023-01-26T13:10:29.373Z,31.02
2023-01-26T13:13:00.370Z,35.20
2023-01-26T13:15:30.333Z,35.92
2023-01-26T13:18:00.979Z,34.08
2023-01-26T13:20:45.558Z,35.55
2023-01-26T13:23:40.527Z,40.58
2023-01-26T13:26:18.213Z,39.05
2023-01-26T13:28:48.175Z,35.67
2023-01-26T13:31:32.445Z,37.07
2023-01-26T13:34:03.746Z,33.13
2023-01-26T13:36:37.378Z,45.13
2023-01-26T13:39:12.780Z,37.43
2023-01-26T13:41:48.381Z,36.07
2023-01-26T13:44:21.418Z,37.27
2023-01-26T13:46:54.156Z,33.80
2023-01-26T13:49:27.599Z,30.70
2023-01-26T13:51:56.054Z,34.60
2023-01-26T13:54:27.760Z,35.77
2023-01-26T13:57:05.496Z,36.27
2023-01-26T13:59:34.773Z,38.23
2023-01-26T14:02:03.131Z,34.43
2023-01-26T14:04:35.073Z,36.10
2023-01-26T14:07:06.456Z,44.70
2023-01-26T14:09:43.979Z,41.00
2023-01-26T14:12:22.050Z,34.50
2023-01-26T14:14:52.731Z,32.00
2023-01-26T14:17:29.154Z,31.80
2023-01-26T14:19:58.372Z,34.83
2023-01-26T14:22:27.024Z,36.17
2023-01-26T14:24:56.002Z,33.77
2023-01-26T14:27:34.837Z,31.87
2023-01-26T14:30:09.227Z,34.23
2023-01-26T14:32:37.802Z,31.10
2023-01-26T14:35:22.707Z,33.07
2023-01-26T14:37:51.429Z,28.73
2023-01-26T14:40:25.300Z,32.53
2023-01-26T14:42:55.846Z,35.77
2023-01-26T14:45:30.793Z,29.27
2023-01-26T14:48:01.213Z,35.43
2023-01-26T14:50:32.347Z,31.97
2023-01-26T14:53:02.084Z,27.80
2023-01-26T14:55:32.532Z,29.77
2023-01-26T14:58:04.816Z,35.37
2023-01-26T15:00:37.139Z,34.57
2023-01-26T15:03:12.418Z,28.07
2023-01-26T15:05:42.274Z,32.27
2023-01-26T15:08:21.677Z,28.87
2023-01-26T15:11:16.422Z,25.07
2023-01-26T15:13:48.684Z,28.83
2023-01-26T15:16:19.290Z,32.10
2023-01-26T15:18:58.574Z,28.77
2023-01-26T15:21:33.846Z,29.03
2023-01-26T15:24:02.386Z,33.03
2023-01-26T15:26:32.859Z,27.10
2023-01-26T15:29:05.841Z,28.90
2023-01-26T15:31:36.678Z,29.70
2023-01-26T15:34:05.933Z,27.80
2023-01-26T15:36:36.322Z,24.53
2023-01-26T15:39:13.489Z,28.13
2023-01-26T15:41:42.557Z,27.60
2023-01-26T15:44:17.139Z,26.77
2023-01-26T15:46:45.893Z,25.97
2023-01-26T15:49:14.642Z,28.27
2023-01-26T15:51:42.875Z,30.30
2023-01-26T15:54:12.464Z,25.50
2023-01-26T15:56:40.670Z,28.97
2023-01-26T15:59:08.915Z,28.00
2023-01-26T16:01:38.877Z,25.43
2023-01-26T16:04:07.108Z,27.30
2023-01-26T16:06:35.387Z,24.37
2023-01-26T16:09:03.577Z,26.80
2023-01-26T16:11:35.836Z,27.03
2023-01-26T16:14:04.604Z,26.83
2023-01-26T16:16:33.718Z,29.90
2023-01-26T16:19:03.420Z,32.37
2023-01-26T16:21:35.314Z,28.57
2023-01-26T16:24:04.783Z,29.17
2023-01-26T16:26:33.879Z,24.70
2023-01-26T16:29:02.198Z,30.03
2023-01-26T16:31:32.151Z,28.20
2023-01-26T16:34:01.232Z,27.63
2023-01-26T16:36:30.840Z,26.00
2023-01-26T16:38:59.100Z,29.30
2023-01-26T16:41:28.892Z,27.87
2023-01-26T16:43:58.479Z,28.97
2023-01-26T16:46:27.409Z,31.13
2023-01-26T16:48:56.255Z,34.60
2023-01-26T16:51:26.639Z,30.27
2023-01-26T16:53:57.052Z,27.13
2023-01-26T16:56:26.231Z,24.97
2023-01-26T16:58:54.395Z,23.83
2023-01-26T17:01:25.179Z,26.17
2023-01-26T17:03:53.415Z,27.07
2023-01-26T17:06:21.829Z,26.37
2023-01-26T17:08:50.945Z,28.13
2023-01-26T17:11:23.243Z,29.73
2023-01-26T17:13:52.038Z,34.10
2023-01-26T17:16:22.798Z,28.43
2023-01-26T17:18:51.107Z,26.37
2023-01-26T17:21:20.836Z,27.93
2023-01-26T17:23:53.600Z,32.13
2023-01-26T17:26:24.046Z,28.90
2023-01-26T17:28:55.558Z,30.50
2023-01-26T17:31:26.682Z,31.47
2023-01-26T17:33:56.388Z,30.13
2023-01-26T17:36:25.083Z,35.00
2023-01-26T17:38:53.647Z,29.87
2023-01-26T17:41:23.249Z,32.70
2023-01-26T17:43:51.990Z,29.93
2023-01-26T17:46:21.706Z,31.20
2023-01-26T17:48:50.767Z,31.23
2023-01-26T17:51:21.017Z,29.70
2023-01-26T17:53:50.675Z,28.13
2023-01-26T17:56:20.546Z,29.17
2023-01-26T17:58:51.433Z,30.30
2023-01-26T18:01:20.650Z,32.43
2023-01-26T18:03:49.416Z,30.57
2023-01-26T18:06:18.068Z,28.20
2023-01-26T18:08:46.332Z,35.97
2023-01-26T18:11:16.258Z,30.37
2023-01-26T18:13:45.112Z,29.93
2023-01-26T18:16:17.441Z,31.80
2023-01-26T18:18:46.273Z,27.73
2023-01-26T18:21:17.039Z,29.30
2023-01-26T18:23:46.639Z,29.83
2023-01-26T18:26:15.257Z,32.23
2023-01-26T18:28:44.562Z,31.47
2023-01-26T18:31:15.735Z,30.67
2023-01-26T18:33:44.180Z,27.43
2023-01-26T18:36:14.222Z,33.80
2023-01-26T18:38:44.544Z,29.67
2023-01-26T18:41:13.519Z,32.53
2023-01-26T18:43:42.613Z,35.17
2023-01-26T18:46:11.332Z,34.83
2023-01-26T18:48:41.339Z,31.13
2023-01-26T18:51:10.218Z,33.57
2023-01-26T18:53:40.235Z,34.30
2023-01-26T18:56:10.368Z,33.77
2023-01-26T18:58:40.037Z,32.03
2023-01-26T19:01:13.225Z,35.93
2023-01-26T19:03:47.551Z,34.63
2023-01-26T19:06:18.345Z,33.20
2023-01-26T19:08:47.284Z,32.60
2023-01-26T19:11:15.669Z,34.17
2023-01-26T19:13:46.979Z,34.03
2023-01-26T19:16:15.366Z,34.07
2023-01-26T19:18:44.972Z,31.87
2023-01-26T19:21:13.333Z,33.50
2023-01-26T19:23:42.765Z,37.67
2023-01-26T19:26:12.355Z,34.10
2023-01-26T19:28:42.096Z,35.03
2023-01-26T19:31:11.303Z,33.87
2023-01-26T19:33:39.915Z,36.27
2023-01-26T19:36:10.470Z,30.00
2023-01-26T19:38:40.637Z,28.73
2023-01-26T19:41:10.815Z,36.40
2023-01-26T19:43:39.202Z,31.43
2023-01-26T19:46:08.475Z,30.33
2023-01-26T19:48:39.640Z,31.30
2023-01-26T19:51:12.526Z,29.37
2023-01-26T19:53:42.521Z,32.03
2023-01-26T19:56:12.645Z,30.60
2023-01-26T19:58:41.299Z,32.23
2023-01-26T20:01:13.060Z,29.37
2023-01-26T20:03:41.641Z,32.27
2023-01-26T20:06:18.231Z,29.93
2023-01-26T20:08:50.353Z,26.60
2023-01-26T20:11:19.997Z,30.00
2023-01-26T20:13:48.180Z,30.60
2023-01-26T20:16:16.470Z,29.97
2023-01-26T20:18:45.317Z,33.33
2023-01-26T20:21:14.928Z,27.53
2023-01-26T20:23:53.666Z,33.33
2023-01-26T20:26:23.082Z,29.03
2023-01-26T20:28:56.173Z,31.93
2023-01-26T20:31:27.782Z,35.47
2023-01-26T20:33:56.873Z,31.87
2023-01-26T20:36:29.446Z,32.50
2023-01-26T20:38:57.907Z,30.00
2023-01-26T20:41:28.968Z,32.57
2023-01-26T20:44:01.212Z,34.73
2023-01-26T20:46:30.933Z,30.60
2023-01-26T20:48:59.116Z,37.07
2023-01-26T20:51:30.792Z,33.80
2023-01-26T20:53:59.602Z,34.47
2023-01-26T20:56:28.012Z,31.37
2023-01-26T20:58:57.019Z,35.67
2023-01-26T21:01:26.175Z,35.27
2023-01-26T21:03:54.934Z,35.47
2023-01-26T21:06:24.395Z,30.90
2023-01-26T21:08:56.863Z,34.33
2023-01-26T21:11:27.105Z,40.43
2023-01-26T21:13:56.751Z,37.23
2023-01-26T21:16:25.837Z,33.73
2023-01-26T21:18:54.122Z,35.63
2023-01-26T21:21:23.102Z,35.83
2023-01-26T21:23:51.736Z,37.50
2023-01-26T21:26:23.721Z,38.83
2023-01-26T21:28:53.222Z,38.95
2023-01-26T21:31:22.556Z,40.40
2023-01-26T21:33:51.557Z,39.37
2023-01-26T21:36:21.426Z,39.70
2023-01-26T21:38:52.139Z,42.47
2023-01-26T21:41:40.639Z,48.37
2023-01-26T21:44:11.055Z,41.20
2023-01-26T21:46:39.658Z,40.43
2023-01-26T21:49:09.319Z,42.13
2023-01-26T21:51:54.905Z,36.90
2023-01-26T21:54:23.344Z,39.30
2023-01-26T21:56:52.947Z,40.47
2023-01-26T21:59:20.409Z,45.77
2023-01-26T22:01:51.109Z,38.47
2023-01-26T22:04:21.149Z,42.20
2023-01-26T22:06:49.437Z,43.70
2023-01-26T22:09:18.517Z,48.23
2023-01-26T22:11:46.677Z,35.13
2023-01-26T22:14:19.027Z,39.77
2023-01-26T22:16:47.567Z,39.37
2023-01-26T22:19:15.894Z,39.47
2023-01-26T22:21:44.801Z,40.92
2023-01-26T22:24:15.348Z,39.73
2023-01-26T22:26:43.728Z,42.17
2023-01-26T22:29:13.462Z,39.53
2023-01-26T22:31:43.210Z,36.93
2023-01-26T22:34:12.385Z,39.20
2023-01-26T22:36:41.354Z,37.13
2023-01-26T22:39:09.964Z,34.47
2023-01-26T22:41:38.154Z,30.70
2023-01-26T22:44:06.415Z,37.27
2023-01-26T22:46:35.740Z,32.90
2023-01-26T22:49:05.868Z,30.97
2023-01-26T22:51:37.341Z,28.50
2023-01-26T22:54:06.617Z,29.50
2023-01-26T22:56:34.907Z,24.33
2023-01-26T22:59:03.554Z,24.50
2023-01-26T23:01:33.915Z,25.07
2023-01-26T23:04:02.591Z,24.20
2023-01-26T23:06:32.651Z,23.97
2023-01-26T23:09:04.663Z,23.73
2023-01-26T23:11:33.455Z,20.50
2023-01-26T23:14:02.043Z,21.87
2023-01-26T23:16:30.787Z,22.03
2023-01-26T23:19:00.195Z,21.07
2023-01-26T23:21:29.517Z,23.33
2023-01-26T23:23:59.210Z,23.63
2023-01-26T23:26:27.884Z,22.55
2023-01-26T23:28:56.165Z,21.70
2023-01-26T23:31:24.707Z,23.17
2023-01-26T23:33:53.030Z,23.33
2023-01-26T23:36:21.748Z,21.83
2023-01-26T23:38:50.018Z,27.63
2023-01-26T23:41:20.252Z,23.20
2023-01-26T23:43:48.545Z,21.58
2023-01-26T23:46:17.039Z,18.83
2023-01-26T23:48:45.315Z,17.70
2023-01-26T23:51:14.036Z,19.83
2023-01-26T23:53:42.677Z,20.57
2023-01-26T23:56:14.351Z,21.83
2023-01-26T23:58:44.522Z,26.63
